sensor_id;sensor_type;location;lat;lon;timestamp;temperature;humidity
4673;DHT22;61885;53.560;9.940;2022-08-21T00:01:09;17.30;35.30
4673;DHT22;61885;53.560;9.940;2022-08-21T00:03:40;17.30;34.90
4673;DHT22;61885;53.560;9.940;2022-08-21T00:06:12;17.40;37.10
4673;DHT22;61885;53.560;9.940;2022-08-21T00:08:42;17.30;38.40
4673;DHT22;61885;53.560;9.940;2022-08-21T00:11:14;17.30;37.70
4673;DHT22;61885;53.560;9.940;2022-08-21T00:13:44;17.30;39.00
4673;DHT22;61885;53.560;9.940;2022-08-21T00:16:13;17.30;38.50
4673;DHT22;61885;53.560;9.940;2022-08-21T00:18:44;17.20;38.00
4673;DHT22;61885;53.560;9.940;2022-08-21T00:21:16;17.20;41.50
4673;DHT22;61885;53.560;9.940;2022-08-21T00:23:46;17.20;40.40
4673;DHT22;61885;53.560;9.940;2022-08-21T00:26:16;17.20;41.80
4673;DHT22;61885;53.560;9.940;2022-08-21T00:28:45;17.20;42.90
4673;DHT22;61885;53.560;9.940;2022-08-21T00:31:15;17.20;42.40
4673;DHT22;61885;53.560;9.940;2022-08-21T00:33:45;17.20;44.30
4673;DHT22;61885;53.560;9.940;2022-08-21T00:36:17;17.10;44.40
4673;DHT22;61885;53.560;9.940;2022-08-21T00:38:47;17.10;43.70
4673;DHT22;61885;53.560;9.940;2022-08-21T00:41:16;17.10;44.80
4673;DHT22;61885;53.560;9.940;2022-08-21T00:43:46;17.10;46.00
4673;DHT22;61885;53.560;9.940;2022-08-21T00:46:16;17.10;45.30
4673;DHT22;61885;53.560;9.940;2022-08-21T00:48:46;17.00;46.50
4673;DHT22;61885;53.560;9.940;2022-08-21T00:51:21;17.00;47.10
4673;DHT22;61885;53.560;9.940;2022-08-21T00:53:56;17.80;48.90
4673;DHT22;61885;53.560;9.940;2022-08-21T00:56:26;17.00;49.60
4673;DHT22;61885;53.560;9.940;2022-08-21T00:58:57;17.10;48.90
4673;DHT22;61885;53.560;9.940;2022-08-21T01:01:28;17.00;51.20
4673;DHT22;61885;53.560;9.940;2022-08-21T01:03:58;17.00;51.90
4673;DHT22;61885;53.560;9.940;2022-08-21T01:06:30;17.00;52.90
4673;DHT22;61885;53.560;9.940;2022-08-21T01:09:01;17.00;55.00
4673;DHT22;61885;53.560;9.940;2022-08-21T01:11:31;17.00;57.50
4673;DHT22;61885;53.560;9.940;2022-08-21T01:14:01;17.00;59.50
4673;DHT22;61885;53.560;9.940;2022-08-21T01:16:31;17.00;61.20
4673;DHT22;61885;53.560;9.940;2022-08-21T01:19:01;17.00;66.10
4673;DHT22;61885;53.560;9.940;2022-08-21T01:21:34;17.10;68.20
4673;DHT22;61885;53.560;9.940;2022-08-21T01:24:06;17.00;73.00
4673;DHT22;61885;53.560;9.940;2022-08-21T01:26:40;17.00;76.20
4673;DHT22;61885;53.560;9.940;2022-08-21T01:29:16;17.10;78.50
4673;DHT22;61885;53.560;9.940;2022-08-21T01:31:50;16.90;79.90
4673;DHT22;61885;53.560;9.940;2022-08-21T01:34:20;17.00;80.70
4673;DHT22;61885;53.560;9.940;2022-08-21T01:36:52;17.00;80.50
4673;DHT22;61885;53.560;9.940;2022-08-21T01:39:22;16.90;80.50
4673;DHT22;61885;53.560;9.940;2022-08-21T01:41:51;16.90;80.30
4673;DHT22;61885;53.560;9.940;2022-08-21T01:44:21;16.90;80.00
4673;DHT22;61885;53.560;9.940;2022-08-21T01:46:51;16.80;80.00
4673;DHT22;61885;53.560;9.940;2022-08-21T01:49:21;16.80;79.70
4673;DHT22;61885;53.560;9.940;2022-08-21T01:51:53;16.80;80.00
4673;DHT22;61885;53.560;9.940;2022-08-21T01:54:23;16.90;79.20
4673;DHT22;61885;53.560;9.940;2022-08-21T01:56:53;16.90;79.20
4673;DHT22;61885;53.560;9.940;2022-08-21T01:59:23;16.80;77.80
4673;DHT22;61885;53.560;9.940;2022-08-21T02:01:53;18.20;76.50
4673;DHT22;61885;53.560;9.940;2022-08-21T02:04:23;16.90;74.50
4673;DHT22;61885;53.560;9.940;2022-08-21T02:06:56;20.50;73.30
4673;DHT22;61885;53.560;9.940;2022-08-21T02:09:25;16.60;71.20
4673;DHT22;61885;53.560;9.940;2022-08-21T02:11:55;16.70;72.50
4673;DHT22;61885;53.560;9.940;2022-08-21T02:14:25;16.80;68.50
4673;DHT22;61885;53.560;9.940;2022-08-21T02:16:55;16.80;68.00
4673;DHT22;61885;53.560;9.940;2022-08-21T02:19:24;19.40;70.40
4673;DHT22;61885;53.560;9.940;2022-08-21T02:21:56;16.80;66.20
4673;DHT22;61885;53.560;9.940;2022-08-21T02:24:26;20.10;70.00
4673;DHT22;61885;53.560;9.940;2022-08-21T02:26:55;16.80;66.60
4673;DHT22;61885;53.560;9.940;2022-08-21T02:29:25;19.00;68.90
4673;DHT22;61885;53.560;9.940;2022-08-21T02:31:54;16.60;65.30
4673;DHT22;61885;53.560;9.940;2022-08-21T02:34:24;16.70;66.40
4673;DHT22;61885;53.560;9.940;2022-08-21T02:36:56;16.70;66.40
4673;DHT22;61885;53.560;9.940;2022-08-21T02:39:26;16.70;67.70
4673;DHT22;61885;53.560;9.940;2022-08-21T02:41:55;16.60;69.40
4673;DHT22;61885;53.560;9.940;2022-08-21T02:44:25;17.90;69.30
4673;DHT22;61885;53.560;9.940;2022-08-21T02:46:55;16.40;69.00
4673;DHT22;61885;53.560;9.940;2022-08-21T02:49:25;17.10;70.70
4673;DHT22;61885;53.560;9.940;2022-08-21T02:51:57;16.70;68.80
4673;DHT22;61885;53.560;9.940;2022-08-21T02:54:26;18.00;68.00
4673;DHT22;61885;53.560;9.940;2022-08-21T02:56:56;18.20;69.10
4673;DHT22;61885;53.560;9.940;2022-08-21T02:59:25;18.90;70.80
4673;DHT22;61885;53.560;9.940;2022-08-21T03:01:55;16.50;68.70
4673;DHT22;61885;53.560;9.940;2022-08-21T03:04:25;16.30;68.20
4673;DHT22;61885;53.560;9.940;2022-08-21T03:06:57;16.40;68.00
4673;DHT22;61885;53.560;9.940;2022-08-21T03:09:26;16.40;68.00
4673;DHT22;61885;53.560;9.940;2022-08-21T03:11:56;16.80;69.70
4673;DHT22;61885;53.560;9.940;2022-08-21T03:14:26;17.20;71.70
4673;DHT22;61885;53.560;9.940;2022-08-21T03:16:55;16.80;72.10
4673;DHT22;61885;53.560;9.940;2022-08-21T03:19:25;17.00;72.70
4673;DHT22;61885;53.560;9.940;2022-08-21T03:21:57;16.10;71.90
4673;DHT22;61885;53.560;9.940;2022-08-21T03:24:26;18.40;73.30
4673;DHT22;61885;53.560;9.940;2022-08-21T03:26:56;17.30;72.50
4673;DHT22;61885;53.560;9.940;2022-08-21T03:29:26;17.40;70.40
4673;DHT22;61885;53.560;9.940;2022-08-21T03:31:55;17.80;71.90
4673;DHT22;61885;53.560;9.940;2022-08-21T03:34:25;17.30;72.10
4673;DHT22;61885;53.560;9.940;2022-08-21T03:36:57;16.20;68.90
4673;DHT22;61885;53.560;9.940;2022-08-21T03:39:27;18.30;71.00
4673;DHT22;61885;53.560;9.940;2022-08-21T03:41:56;16.10;69.50
4673;DHT22;61885;53.560;9.940;2022-08-21T03:44:26;15.90;70.40
4673;DHT22;61885;53.560;9.940;2022-08-21T03:46:57;16.00;71.70
4673;DHT22;61885;53.560;9.940;2022-08-21T03:49:27;16.40;71.50
4673;DHT22;61885;53.560;9.940;2022-08-21T03:51:59;15.90;70.30
4673;DHT22;61885;53.560;9.940;2022-08-21T03:54:29;16.50;73.30
4673;DHT22;61885;53.560;9.940;2022-08-21T03:56:59;16.00;72.10
4673;DHT22;61885;53.560;9.940;2022-08-21T03:59:28;15.90;73.30
4673;DHT22;61885;53.560;9.940;2022-08-21T04:02:00;18.10;74.70
4673;DHT22;61885;53.560;9.940;2022-08-21T04:04:30;16.40;73.50
4673;DHT22;61885;53.560;9.940;2022-08-21T04:07:03;16.20;73.00
4673;DHT22;61885;53.560;9.940;2022-08-21T04:09:32;16.00;73.00
4673;DHT22;61885;53.560;9.940;2022-08-21T04:12:03;15.90;74.30
4673;DHT22;61885;53.560;9.940;2022-08-21T04:14:32;15.90;75.50
4673;DHT22;61885;53.560;9.940;2022-08-21T04:17:02;15.90;77.40
4673;DHT22;61885;53.560;9.940;2022-08-21T04:19:32;15.90;75.80
4673;DHT22;61885;53.560;9.940;2022-08-21T04:22:04;18.00;78.70
4673;DHT22;61885;53.560;9.940;2022-08-21T04:24:34;16.10;74.80
4673;DHT22;61885;53.560;9.940;2022-08-21T04:27:03;18.80;75.90
4673;DHT22;61885;53.560;9.940;2022-08-21T04:29:33;16.20;72.90
4673;DHT22;61885;53.560;9.940;2022-08-21T04:32:03;16.40;74.00
4673;DHT22;61885;53.560;9.940;2022-08-21T04:34:33;16.40;73.00
4673;DHT22;61885;53.560;9.940;2022-08-21T04:37:05;16.20;70.50
4673;DHT22;61885;53.560;9.940;2022-08-21T04:39:35;19.60;75.90
4673;DHT22;61885;53.560;9.940;2022-08-21T04:42:05;16.50;73.00
4673;DHT22;61885;53.560;9.940;2022-08-21T04:44:35;16.40;71.80
4673;DHT22;61885;53.560;9.940;2022-08-21T04:47:05;16.50;72.70
4673;DHT22;61885;53.560;9.940;2022-08-21T04:49:35;16.70;69.60
4673;DHT22;61885;53.560;9.940;2022-08-21T04:52:07;16.50;70.00
4673;DHT22;61885;53.560;9.940;2022-08-21T04:54:37;16.60;67.80
4673;DHT22;61885;53.560;9.940;2022-08-21T04:57:08;16.60;67.80
4673;DHT22;61885;53.560;9.940;2022-08-21T04:59:43;16.60;66.80
4673;DHT22;61885;53.560;9.940;2022-08-21T05:02:13;16.60;66.90
4673;DHT22;61885;53.560;9.940;2022-08-21T05:04:48;16.60;67.30
4673;DHT22;61885;53.560;9.940;2022-08-21T05:07:24;16.70;65.80
4673;DHT22;61885;53.560;9.940;2022-08-21T05:09:55;16.70;66.90
4673;DHT22;61885;53.560;9.940;2022-08-21T05:12:25;16.80;66.60
4673;DHT22;61885;53.560;9.940;2022-08-21T05:14:55;16.40;68.10
4673;DHT22;61885;53.560;9.940;2022-08-21T05:17:25;16.70;68.40
4673;DHT22;61885;53.560;9.940;2022-08-21T05:19:55;16.60;69.30
4673;DHT22;61885;53.560;9.940;2022-08-21T05:22:28;16.70;69.70
4673;DHT22;61885;53.560;9.940;2022-08-21T05:24:57;19.90;71.10
4673;DHT22;61885;53.560;9.940;2022-08-21T05:27:27;16.80;68.60
4673;DHT22;61885;53.560;9.940;2022-08-21T05:29:58;16.90;67.80
4673;DHT22;61885;53.560;9.940;2022-08-21T05:32:33;17.90;70.40
4673;DHT22;61885;53.560;9.940;2022-08-21T05:35:04;17.00;67.50
4673;DHT22;61885;53.560;9.940;2022-08-21T05:37:37;17.10;69.50
4673;DHT22;61885;53.560;9.940;2022-08-21T05:40:08;17.10;70.80
4673;DHT22;61885;53.560;9.940;2022-08-21T05:42:37;17.20;69.50
4673;DHT22;61885;53.560;9.940;2022-08-21T05:45:08;17.20;68.30
4673;DHT22;61885;53.560;9.940;2022-08-21T05:47:37;17.20;65.30
4673;DHT22;61885;53.560;9.940;2022-08-21T05:50:08;18.10;65.30
4673;DHT22;61885;53.560;9.940;2022-08-21T05:52:40;17.30;63.40
4673;DHT22;61885;53.560;9.940;2022-08-21T05:55:09;19.10;63.90
4673;DHT22;61885;53.560;9.940;2022-08-21T05:57:40;17.30;60.00
4673;DHT22;61885;53.560;9.940;2022-08-21T06:00:11;18.50;58.30
4673;DHT22;61885;53.560;9.940;2022-08-21T06:02:41;17.40;56.80
4673;DHT22;61885;53.560;9.940;2022-08-21T06:05:11;17.50;52.60
4673;DHT22;61885;53.560;9.940;2022-08-21T06:07:44;17.30;51.50
4673;DHT22;61885;53.560;9.940;2022-08-21T06:10:13;17.50;49.70
4673;DHT22;61885;53.560;9.940;2022-08-21T06:12:43;17.50;44.10
4673;DHT22;61885;53.560;9.940;2022-08-21T06:15:14;17.50;43.50
4673;DHT22;61885;53.560;9.940;2022-08-21T06:17:43;17.60;41.50
4673;DHT22;61885;53.560;9.940;2022-08-21T06:20:13;18.00;40.70
4673;DHT22;61885;53.560;9.940;2022-08-21T06:22:45;18.60;39.10
4673;DHT22;61885;53.560;9.940;2022-08-21T06:25:15;17.80;36.50
4673;DHT22;61885;53.560;9.940;2022-08-21T06:27:46;17.80;35.20
4673;DHT22;61885;53.560;9.940;2022-08-21T06:30:15;17.70;33.70
4673;DHT22;61885;53.560;9.940;2022-08-21T06:32:45;17.90;35.50
4673;DHT22;61885;53.560;9.940;2022-08-21T06:35:15;20.70;39.20
4673;DHT22;61885;53.560;9.940;2022-08-21T06:37:47;17.70;37.80
4673;DHT22;61885;53.560;9.940;2022-08-21T06:40:17;17.60;39.30
4673;DHT22;61885;53.560;9.940;2022-08-21T06:42:47;17.80;39.50
4673;DHT22;61885;53.560;9.940;2022-08-21T06:45:17;17.90;40.10
4673;DHT22;61885;53.560;9.940;2022-08-21T06:47:46;17.90;41.70
4673;DHT22;61885;53.560;9.940;2022-08-21T06:50:16;19.00;40.30
4673;DHT22;61885;53.560;9.940;2022-08-21T06:52:48;17.90;38.60
4673;DHT22;61885;53.560;9.940;2022-08-21T06:55:18;17.80;38.60
4673;DHT22;61885;53.560;9.940;2022-08-21T06:57:48;21.40;38.90
4673;DHT22;61885;53.560;9.940;2022-08-21T07:00:25;18.20;35.30
4673;DHT22;61885;53.560;9.940;2022-08-21T07:02:55;18.80;30.40
4673;DHT22;61885;53.560;9.940;2022-08-21T07:05:26;18.20;27.90
4673;DHT22;61885;53.560;9.940;2022-08-21T07:07:58;18.20;25.10
4673;DHT22;61885;53.560;9.940;2022-08-21T07:10:28;18.20;23.20
4673;DHT22;61885;53.560;9.940;2022-08-21T07:12:58;18.30;21.90
4673;DHT22;61885;53.560;9.940;2022-08-21T07:15:28;18.40;20.40
4673;DHT22;61885;53.560;9.940;2022-08-21T07:17:58;18.40;18.70
4673;DHT22;61885;53.560;9.940;2022-08-21T07:20:30;18.20;13.40
4673;DHT22;61885;53.560;9.940;2022-08-21T07:23:10;18.60;10.60
4673;DHT22;61885;53.560;9.940;2022-08-21T07:25:41;18.60;10.50
4673;DHT22;61885;53.560;9.940;2022-08-21T07:28:11;21.00;11.10
4673;DHT22;61885;53.560;9.940;2022-08-21T07:30:41;18.80;7.10
4673;DHT22;61885;53.560;9.940;2022-08-21T07:33:11;18.90;4.00
4673;DHT22;61885;53.560;9.940;2022-08-21T07:35:41;18.90;4.90
4673;DHT22;61885;53.560;9.940;2022-08-21T07:38:13;18.90;4.70
4673;DHT22;61885;53.560;9.940;2022-08-21T07:40:43;18.90;5.20
4673;DHT22;61885;53.560;9.940;2022-08-21T07:43:13;18.90;6.20
4673;DHT22;61885;53.560;9.940;2022-08-21T07:45:43;18.90;6.40
4673;DHT22;61885;53.560;9.940;2022-08-21T07:48:13;19.00;7.70
4673;DHT22;61885;53.560;9.940;2022-08-21T07:50:43;19.10;9.40
4673;DHT22;61885;53.560;9.940;2022-08-21T07:53:18;19.10;8.70
4673;DHT22;61885;53.560;9.940;2022-08-21T07:55:48;19.20;7.20
4673;DHT22;61885;53.560;9.940;2022-08-21T07:58:18;19.10;6.60
4673;DHT22;61885;53.560;9.940;2022-08-21T08:00:48;19.10;7.20
4673;DHT22;61885;53.560;9.940;2022-08-21T08:03:17;19.10;8.10
4673;DHT22;61885;53.560;9.940;2022-08-21T08:08:20;19.30;5.90
4673;DHT22;61885;53.560;9.940;2022-08-21T08:10:50;19.20;7.80
4673;DHT22;61885;53.560;9.940;2022-08-21T08:13:20;19.40;7.10
4673;DHT22;61885;53.560;9.940;2022-08-21T08:15:50;19.50;8.10
4673;DHT22;61885;53.560;9.940;2022-08-21T08:18:20;19.60;7.50
4673;DHT22;61885;53.560;9.940;2022-08-21T08:20:50;19.70;7.30
4673;DHT22;61885;53.560;9.940;2022-08-21T08:23:23;19.80;8.00
4673;DHT22;61885;53.560;9.940;2022-08-21T08:25:53;19.90;8.00
4673;DHT22;61885;53.560;9.940;2022-08-21T08:28:23;19.90;7.90
4673;DHT22;61885;53.560;9.940;2022-08-21T08:30:53;20.00;7.50
4673;DHT22;61885;53.560;9.940;2022-08-21T08:33:23;20.00;5.60
4673;DHT22;61885;53.560;9.940;2022-08-21T08:38:26;20.00;6.80
4673;DHT22;61885;53.560;9.940;2022-08-21T08:41:10;20.00;7.10
4673;DHT22;61885;53.560;9.940;2022-08-21T08:43:44;20.20;7.40
4673;DHT22;61885;53.560;9.940;2022-08-21T08:46:30;20.20;8.00
4673;DHT22;61885;53.560;9.940;2022-08-21T08:49:06;20.30;7.80
4673;DHT22;61885;53.560;9.940;2022-08-21T08:51:42;20.30;8.00
4673;DHT22;61885;53.560;9.940;2022-08-21T08:54:19;20.30;6.40
4673;DHT22;61885;53.560;9.940;2022-08-21T08:56:51;20.30;12.00
4673;DHT22;61885;53.560;9.940;2022-08-21T08:59:26;20.40;6.70
4673;DHT22;61885;53.560;9.940;2022-08-21T09:01:57;20.60;4.60
4673;DHT22;61885;53.560;9.940;2022-08-21T09:04:27;20.60;4.40
4673;DHT22;61885;53.560;9.940;2022-08-21T09:07:05;20.60;4.60
4673;DHT22;61885;53.560;9.940;2022-08-21T09:09:48;20.60;3.60
4673;DHT22;61885;53.560;9.940;2022-08-21T09:12:29;20.60;4.00
4673;DHT22;61885;53.560;9.940;2022-08-21T09:15:09;20.70;3.00
4673;DHT22;61885;53.560;9.940;2022-08-21T09:17:58;20.70;3.60
4673;DHT22;61885;53.560;9.940;2022-08-21T09:20:38;20.60;4.90
4673;DHT22;61885;53.560;9.940;2022-08-21T09:23:18;20.80;1.80
4673;DHT22;61885;53.560;9.940;2022-08-21T09:25:59;20.70;1.90
4673;DHT22;61885;53.560;9.940;2022-08-21T09:28:33;20.70;3.10
4673;DHT22;61885;53.560;9.940;2022-08-21T09:31:07;20.90;2.30
4673;DHT22;61885;53.560;9.940;2022-08-21T09:33:38;23.20;2.80
4673;DHT22;61885;53.560;9.940;2022-08-21T09:36:09;21.00;2.10
4673;DHT22;61885;53.560;9.940;2022-08-21T09:38:39;20.90;2.10
4673;DHT22;61885;53.560;9.940;2022-08-21T09:41:11;21.00;2.00
4673;DHT22;61885;53.560;9.940;2022-08-21T09:43:52;21.00;2.60
4673;DHT22;61885;53.560;9.940;2022-08-21T09:46:24;21.00;2.70
4673;DHT22;61885;53.560;9.940;2022-08-21T09:48:57;21.10;2.80
4673;DHT22;61885;53.560;9.940;2022-08-21T09:51:29;21.00;3.00
4673;DHT22;61885;53.560;9.940;2022-08-21T09:54:12;21.20;1.00
4673;DHT22;61885;53.560;9.940;2022-08-21T09:56:56;21.30;1.00
4673;DHT22;61885;53.560;9.940;2022-08-21T09:59:39;21.40;1.00
4673;DHT22;61885;53.560;9.940;2022-08-21T10:02:31;23.10;1.00
4673;DHT22;61885;53.560;9.940;2022-08-21T10:05:02;21.60;1.00
4673;DHT22;61885;53.560;9.940;2022-08-21T10:07:35;21.60;1.00
4673;DHT22;61885;53.560;9.940;2022-08-21T10:10:09;21.60;1.00
4673;DHT22;61885;53.560;9.940;2022-08-21T10:12:51;21.80;1.00
4673;DHT22;61885;53.560;9.940;2022-08-21T10:15:29;21.90;1.00
4673;DHT22;61885;53.560;9.940;2022-08-21T10:18:08;21.90;1.00
4673;DHT22;61885;53.560;9.940;2022-08-21T10:20:46;21.80;1.00
4673;DHT22;61885;53.560;9.940;2022-08-21T10:23:37;21.80;1.00
4673;DHT22;61885;53.560;9.940;2022-08-21T10:26:20;21.90;1.00
4673;DHT22;61885;53.560;9.940;2022-08-21T10:29:02;22.10;1.00
4673;DHT22;61885;53.560;9.940;2022-08-21T10:31:38;22.00;1.00
4673;DHT22;61885;53.560;9.940;2022-08-21T10:34:22;22.10;1.00
4673;DHT22;61885;53.560;9.940;2022-08-21T10:37:03;22.20;1.00
4673;DHT22;61885;53.560;9.940;2022-08-21T10:39:42;22.00;1.00
4673;DHT22;61885;53.560;9.940;2022-08-21T10:42:28;22.10;1.00
4673;DHT22;61885;53.560;9.940;2022-08-21T10:45:11;22.10;1.00
4673;DHT22;61885;53.560;9.940;2022-08-21T10:47:48;22.00;1.00
4673;DHT22;61885;53.560;9.940;2022-08-21T10:50:26;22.00;1.00
4673;DHT22;61885;53.560;9.940;2022-08-21T10:53:10;22.20;1.00
4673;DHT22;61885;53.560;9.940;2022-08-21T10:55:48;25.10;1.00
4673;DHT22;61885;53.560;9.940;2022-08-21T10:58:25;22.40;1.00
4673;DHT22;61885;53.560;9.940;2022-08-21T11:01:07;25.80;1.00
4673;DHT22;61885;53.560;9.940;2022-08-21T11:03:41;22.50;1.00
4673;DHT22;61885;53.560;9.940;2022-08-21T11:06:14;22.40;1.00
4673;DHT22;61885;53.560;9.940;2022-08-21T11:08:49;22.70;1.00
4673;DHT22;61885;53.560;9.940;2022-08-21T11:11:25;22.70;1.00
4673;DHT22;61885;53.560;9.940;2022-08-21T11:13:58;22.90;1.00
4673;DHT22;61885;53.560;9.940;2022-08-21T11:16:39;22.90;1.00
4673;DHT22;61885;53.560;9.940;2022-08-21T11:19:13;24.50;1.00
4673;DHT22;61885;53.560;9.940;2022-08-21T11:21:48;23.10;1.00
4673;DHT22;61885;53.560;9.940;2022-08-21T11:24:29;23.00;1.00
4673;DHT22;61885;53.560;9.940;2022-08-21T11:27:03;25.10;1.00
4673;DHT22;61885;53.560;9.940;2022-08-21T11:29:36;22.70;1.00
4673;DHT22;61885;53.560;9.940;2022-08-21T11:32:28;22.80;1.00
4673;DHT22;61885;53.560;9.940;2022-08-21T11:35:07;23.10;1.00
4673;DHT22;61885;53.560;9.940;2022-08-21T11:37:50;23.30;1.00
4673;DHT22;61885;53.560;9.940;2022-08-21T11:40:34;23.40;1.00
4673;DHT22;61885;53.560;9.940;2022-08-21T11:43:12;23.50;1.00
4673;DHT22;61885;53.560;9.940;2022-08-21T11:45:49;26.30;1.00
4673;DHT22;61885;53.560;9.940;2022-08-21T11:48:33;23.30;1.00
4673;DHT22;61885;53.560;9.940;2022-08-21T11:51:10;23.40;1.00
4673;DHT22;61885;53.560;9.940;2022-08-21T11:53:45;23.30;1.00
4673;DHT22;61885;53.560;9.940;2022-08-21T11:56:22;23.50;1.00
4673;DHT22;61885;53.560;9.940;2022-08-21T11:58:56;23.70;1.00
4673;DHT22;61885;53.560;9.940;2022-08-21T12:01:30;23.50;1.00
4673;DHT22;61885;53.560;9.940;2022-08-21T12:04:08;23.90;1.00
4673;DHT22;61885;53.560;9.940;2022-08-21T12:06:39;23.00;1.00
4673;DHT22;61885;53.560;9.940;2022-08-21T12:09:23;23.10;1.00
4673;DHT22;61885;53.560;9.940;2022-08-21T12:12:02;23.30;1.00
4673;DHT22;61885;53.560;9.940;2022-08-21T12:14:38;23.50;1.00
4673;DHT22;61885;53.560;9.940;2022-08-21T12:17:18;23.70;1.00
4673;DHT22;61885;53.560;9.940;2022-08-21T12:20:01;23.80;1.00
4673;DHT22;61885;53.560;9.940;2022-08-21T12:22:38;23.70;1.00
4673;DHT22;61885;53.560;9.940;2022-08-21T12:25:11;26.50;1.00
4673;DHT22;61885;53.560;9.940;2022-08-21T12:27:49;23.50;1.00
4673;DHT22;61885;53.560;9.940;2022-08-21T12:30:32;23.60;1.00
4673;DHT22;61885;53.560;9.940;2022-08-21T12:33:06;26.70;1.00
4673;DHT22;61885;53.560;9.940;2022-08-21T12:35:51;23.80;1.00
4673;DHT22;61885;53.560;9.940;2022-08-21T12:38:26;23.90;1.00
4673;DHT22;61885;53.560;9.940;2022-08-21T12:41:00;23.90;1.00
4673;DHT22;61885;53.560;9.940;2022-08-21T12:43:34;24.20;1.00
4673;DHT22;61885;53.560;9.940;2022-08-21T12:46:05;24.10;1.00
4673;DHT22;61885;53.560;9.940;2022-08-21T12:48:42;25.40;1.00
4673;DHT22;61885;53.560;9.940;2022-08-21T12:51:18;24.10;1.00
4673;DHT22;61885;53.560;9.940;2022-08-21T12:53:53;25.60;1.00
4673;DHT22;61885;53.560;9.940;2022-08-21T12:56:25;24.30;1.00
4673;DHT22;61885;53.560;9.940;2022-08-21T12:59:00;27.10;1.00
4673;DHT22;61885;53.560;9.940;2022-08-21T13:01:33;24.20;1.00
4673;DHT22;61885;53.560;9.940;2022-08-21T13:04:08;24.50;1.00
4673;DHT22;61885;53.560;9.940;2022-08-21T13:06:44;24.30;1.00
4673;DHT22;61885;53.560;9.940;2022-08-21T13:09:16;24.30;1.00
4673;DHT22;61885;53.560;9.940;2022-08-21T13:11:48;24.30;1.00
4673;DHT22;61885;53.560;9.940;2022-08-21T13:14:24;24.40;1.00
4673;DHT22;61885;53.560;9.940;2022-08-21T13:16:56;24.60;1.00
4673;DHT22;61885;53.560;9.940;2022-08-21T13:19:26;24.60;1.00
4673;DHT22;61885;53.560;9.940;2022-08-21T13:21:59;26.00;1.00
4673;DHT22;61885;53.560;9.940;2022-08-21T13:24:32;25.00;1.00
4673;DHT22;61885;53.560;9.940;2022-08-21T13:27:03;25.70;1.00
4673;DHT22;61885;53.560;9.940;2022-08-21T13:29:33;24.90;1.00
4673;DHT22;61885;53.560;9.940;2022-08-21T13:32:05;25.00;1.00
4673;DHT22;61885;53.560;9.940;2022-08-21T13:34:37;25.20;1.00
4673;DHT22;61885;53.560;9.940;2022-08-21T13:37:11;25.40;1.00
4673;DHT22;61885;53.560;9.940;2022-08-21T13:39:41;25.70;1.00
4673;DHT22;61885;53.560;9.940;2022-08-21T13:42:12;25.40;1.00
4673;DHT22;61885;53.560;9.940;2022-08-21T13:44:45;25.20;1.00
4673;DHT22;61885;53.560;9.940;2022-08-21T13:47:16;25.40;1.00
4673;DHT22;61885;53.560;9.940;2022-08-21T13:49:47;26.90;1.00
4673;DHT22;61885;53.560;9.940;2022-08-21T13:52:23;25.60;1.00
4673;DHT22;61885;53.560;9.940;2022-08-21T13:54:55;25.50;1.00
4673;DHT22;61885;53.560;9.940;2022-08-21T13:57:29;25.60;1.00
4673;DHT22;61885;53.560;9.940;2022-08-21T14:00:14;25.90;1.00
4673;DHT22;61885;53.560;9.940;2022-08-21T14:02:47;25.70;1.00
4673;DHT22;61885;53.560;9.940;2022-08-21T14:05:21;26.10;1.00
4673;DHT22;61885;53.560;9.940;2022-08-21T14:08:03;26.00;1.00
4673;DHT22;61885;53.560;9.940;2022-08-21T14:10:36;25.90;1.00
4673;DHT22;61885;53.560;9.940;2022-08-21T14:13:29;25.70;1.00
4673;DHT22;61885;53.560;9.940;2022-08-21T14:16:15;26.10;1.00
4673;DHT22;61885;53.560;9.940;2022-08-21T14:18:48;26.20;1.00
4673;DHT22;61885;53.560;9.940;2022-08-21T14:21:29;26.00;1.00
4673;DHT22;61885;53.560;9.940;2022-08-21T14:24:05;26.20;1.00
4673;DHT22;61885;53.560;9.940;2022-08-21T14:26:37;26.50;1.00
4673;DHT22;61885;53.560;9.940;2022-08-21T14:29:14;26.80;1.00
4673;DHT22;61885;53.560;9.940;2022-08-21T14:31:50;26.30;1.00
4673;DHT22;61885;53.560;9.940;2022-08-21T14:34:21;26.30;1.00
4673;DHT22;61885;53.560;9.940;2022-08-21T14:36:51;26.30;1.00
4673;DHT22;61885;53.560;9.940;2022-08-21T14:39:27;27.10;1.00
4673;DHT22;61885;53.560;9.940;2022-08-21T14:41:56;28.20;1.00
4673;DHT22;61885;53.560;9.940;2022-08-21T14:44:27;29.20;1.00
4673;DHT22;61885;53.560;9.940;2022-08-21T14:46:59;29.10;1.00
4673;DHT22;61885;53.560;9.940;2022-08-21T14:49:29;29.40;1.00
4673;DHT22;61885;53.560;9.940;2022-08-21T14:51:58;30.20;1.00
4673;DHT22;61885;53.560;9.940;2022-08-21T14:54:31;31.00;1.00
4673;DHT22;61885;53.560;9.940;2022-08-21T14:57:06;31.70;1.00
4673;DHT22;61885;53.560;9.940;2022-08-21T14:59:38;31.50;1.00
4673;DHT22;61885;53.560;9.940;2022-08-21T15:02:09;31.50;1.00
4673;DHT22;61885;53.560;9.940;2022-08-21T15:04:38;32.30;1.00
4673;DHT22;61885;53.560;9.940;2022-08-21T15:07:09;31.40;1.00
4673;DHT22;61885;53.560;9.940;2022-08-21T15:09:41;31.50;1.00
4673;DHT22;61885;53.560;9.940;2022-08-21T15:12:12;32.70;1.00
4673;DHT22;61885;53.560;9.940;2022-08-21T15:14:42;32.90;1.00
4673;DHT22;61885;53.560;9.940;2022-08-21T15:17:12;32.30;1.00
4673;DHT22;61885;53.560;9.940;2022-08-21T15:19:42;32.40;1.00
4673;DHT22;61885;53.560;9.940;2022-08-21T15:22:12;33.00;1.00
4673;DHT22;61885;53.560;9.940;2022-08-21T15:24:44;33.00;1.00
4673;DHT22;61885;53.560;9.940;2022-08-21T15:27:15;33.70;1.00
4673;DHT22;61885;53.560;9.940;2022-08-21T15:29:45;32.60;1.00
4673;DHT22;61885;53.560;9.940;2022-08-21T15:32:19;32.40;1.00
4673;DHT22;61885;53.560;9.940;2022-08-21T15:34:50;32.50;1.00
4673;DHT22;61885;53.560;9.940;2022-08-21T15:37:21;33.30;1.00
4673;DHT22;61885;53.560;9.940;2022-08-21T15:40:03;33.70;1.00
4673;DHT22;61885;53.560;9.940;2022-08-21T15:42:34;34.40;1.00
4673;DHT22;61885;53.560;9.940;2022-08-21T15:45:05;33.60;1.00
4673;DHT22;61885;53.560;9.940;2022-08-21T15:47:37;33.50;1.00
4673;DHT22;61885;53.560;9.940;2022-08-21T15:50:08;33.90;1.00
4673;DHT22;61885;53.560;9.940;2022-08-21T15:52:39;35.30;1.00
4673;DHT22;61885;53.560;9.940;2022-08-21T15:55:12;34.80;1.00
4673;DHT22;61885;53.560;9.940;2022-08-21T15:57:43;34.30;1.00
4673;DHT22;61885;53.560;9.940;2022-08-21T16:00:28;32.70;1.00
4673;DHT22;61885;53.560;9.940;2022-08-21T16:03:03;32.20;1.00
4673;DHT22;61885;53.560;9.940;2022-08-21T16:05:34;32.50;1.00
4673;DHT22;61885;53.560;9.940;2022-08-21T16:08:04;33.50;1.00
4673;DHT22;61885;53.560;9.940;2022-08-21T16:10:36;34.10;1.00
4673;DHT22;61885;53.560;9.940;2022-08-21T16:13:10;34.90;1.00
4673;DHT22;61885;53.560;9.940;2022-08-21T16:15:41;34.00;1.00
4673;DHT22;61885;53.560;9.940;2022-08-21T16:18:10;34.50;1.00
4673;DHT22;61885;53.560;9.940;2022-08-21T16:20:40;34.80;1.00
4673;DHT22;61885;53.560;9.940;2022-08-21T16:23:10;34.80;1.00
4673;DHT22;61885;53.560;9.940;2022-08-21T16:25:42;34.10;1.00
4673;DHT22;61885;53.560;9.940;2022-08-21T16:28:15;32.00;1.00
4673;DHT22;61885;53.560;9.940;2022-08-21T16:30:48;32.50;1.00
4673;DHT22;61885;53.560;9.940;2022-08-21T16:33:22;31.70;1.00
4673;DHT22;61885;53.560;9.940;2022-08-21T16:35:53;29.90;1.00